Time;durP1;ratioP1;P1;durP2;ratioP2;P2;SDS_P1;SDS_P2;PMS_P1;PMS_P2;Temp;Humidity;BMP_temperature;BMP_pressure;BME280_temperature;BME280_humidity;BME280_pressure;Samples;Min_cycle;Max_cycle;Signal;HPM_P1;HPM_P2
2021/04/24 00:01:41;;;;;;;2.10;1.10;;;22.10;33.20;;;;;;5090107;28;20410;-57
2021/04/24 00:04:06;;;;;;;2.75;1.10;;;22.10;33.20;;;;;;5091570;28;20723;-57
2021/04/24 00:06:32;;;;;;;2.50;1.10;;;22.10;33.10;;;;;;5089989;28;20919;-58
2021/04/24 00:08:59;;;;;;;3.22;1.10;;;22.10;33.00;;;;;;5089882;28;20398;-58
2021/04/24 00:11:26;;;;;;;2.08;1.00;;;22.10;33.00;;;;;;5090906;28;20873;-57
2021/04/24 00:13:53;;;;;;;2.10;1.10;;;22.20;33.00;;;;;;5091372;28;20437;-57
2021/04/24 00:16:19;;;;;;;2.30;1.00;;;22.20;33.00;;;;;;5091444;28;20390;-57
2021/04/24 00:18:46;;;;;;;2.40;1.10;;;22.20;33.00;;;;;;5090061;28;20905;-57
2021/04/24 00:21:12;;;;;;;3.45;1.30;;;22.20;32.90;;;;;;5090898;28;20439;-58
2021/04/24 00:23:38;;;;;;;2.15;1.15;;;22.20;32.90;;;;;;5091067;28;20379;-58
2021/04/24 00:26:04;;;;;;;3.83;1.40;;;22.20;32.80;;;;;;5090660;28;20792;-57
2021/04/24 00:28:29;;;;;;;3.15;1.10;;;22.20;33.00;;;;;;5090525;28;20386;-57
2021/04/24 00:30:56;;;;;;;4.30;1.13;;;22.20;33.20;;;;;;5090609;28;20439;-57
2021/04/24 00:33:24;;;;;;;2.60;1.20;;;22.20;33.40;;;;;;5088479;28;20394;-57
2021/04/24 00:35:50;;;;;;;3.05;1.05;;;22.20;33.40;;;;;;5090136;28;20451;-57
2021/04/24 00:38:16;;;;;;;3.47;1.23;;;22.30;33.80;;;;;;5090041;28;20386;-57
2021/04/24 00:40:41;;;;;;;3.77;1.10;;;22.30;33.40;;;;;;5090191;28;20870;-57
2021/04/24 00:43:07;;;;;;;3.00;1.02;;;22.30;33.10;;;;;;5090100;28;20892;-58
2021/04/24 00:45:32;;;;;;;2.37;0.97;;;22.30;33.30;;;;;;5093543;28;20862;-58
2021/04/24 00:48:00;;;;;;;2.30;0.98;;;22.30;33.00;;;;;;5094098;28;20398;-58
2021/04/24 00:50:30;;;;;;;2.60;0.90;;;22.40;32.80;;;;;;5093930;28;20392;-58
2021/04/24 00:52:56;;;;;;;1.77;1.00;;;22.40;32.80;;;;;;5094034;28;20386;-58
2021/04/24 00:55:21;;;;;;;2.83;1.00;;;22.40;32.60;;;;;;5093532;28;20511;-58
2021/04/24 00:57:48;;;;;;;2.80;1.20;;;22.40;32.50;;;;;;5094394;28;20476;-57
2021/04/24 01:00:15;;;;;;;2.80;1.30;;;22.40;32.40;;;;;;5094915;28;20480;-57
2021/04/24 01:02:41;;;;;;;2.47;1.10;;;22.40;32.40;;;;;;5094444;28;20445;-57
2021/04/24 01:05:14;;;;;;;3.00;1.50;;;22.40;32.90;;;;;;5094749;28;20458;-58
2021/04/24 01:07:41;;;;;;;3.28;1.50;;;22.40;32.30;;;;;;5094677;28;20870;-57
2021/04/24 01:10:07;;;;;;;3.50;1.40;;;22.40;32.20;;;;;;5094730;28;20392;-57
2021/04/24 01:12:33;;;;;;;3.00;1.58;;;22.40;32.20;;;;;;5094640;28;21008;-57
2021/04/24 01:14:59;;;;;;;3.17;1.58;;;22.40;32.20;;;;;;5094576;28;20464;-57
2021/04/24 01:17:25;;;;;;;3.17;1.55;;;22.40;32.10;;;;;;5094022;28;20746;-58
2021/04/24 01:19:51;;;;;;;3.73;1.60;;;22.40;32.10;;;;;;5094414;28;20370;-57
2021/04/24 01:22:17;;;;;;;2.88;1.73;;;22.40;32.10;;;;;;5094419;28;20916;-58
2021/04/24 01:24:43;;;;;;;2.42;1.40;;;22.40;32.10;;;;;;5094354;28;20392;-58
2021/04/24 01:27:08;;;;;;;3.08;1.60;;;22.40;32.10;;;;;;5094150;28;20463;-57
2021/04/24 01:29:36;;;;;;;3.40;1.70;;;22.40;32.10;;;;;;5094032;28;20447;-58
2021/04/24 01:32:03;;;;;;;3.78;1.75;;;22.40;32.10;;;;;;5094282;28;20397;-57
2021/04/24 01:34:30;;;;;;;2.43;1.50;;;22.30;32.00;;;;;;5094234;28;20523;-61
2021/04/24 01:36:56;;;;;;;2.22;1.38;;;22.40;32.10;;;;;;5094100;28;20390;-57
2021/04/24 01:39:22;;;;;;;3.00;1.80;;;22.40;32.00;;;;;;5093662;28;20469;-57
2021/04/24 01:41:48;;;;;;;2.67;1.40;;;22.30;31.90;;;;;;5094199;28;20478;-57
2021/04/24 01:44:14;;;;;;;2.58;1.30;;;22.40;32.00;;;;;;5093985;28;20382;-57
2021/04/24 01:46:39;;;;;;;2.47;1.40;;;22.30;31.90;;;;;;5093946;28;20386;-57
2021/04/24 01:49:05;;;;;;;2.78;1.55;;;22.40;31.90;;;;;;5093900;28;20470;-57
2021/04/24 01:51:30;;;;;;;4.00;1.80;;;22.30;31.90;;;;;;5093361;28;20390;-58
2021/04/24 01:53:57;;;;;;;2.60;1.30;;;22.30;31.80;;;;;;5093620;28;20508;-57
2021/04/24 01:56:23;;;;;;;2.17;1.30;;;22.30;31.80;;;;;;5093763;28;20382;-57
2021/04/24 01:58:51;;;;;;;2.33;1.42;;;22.30;31.80;;;;;;5093665;28;20788;-57
2021/04/24 02:01:17;;;;;;;2.58;1.40;;;22.30;31.80;;;;;;5093015;28;20453;-57
2021/04/24 02:03:47;;;;;;;1.90;1.27;;;22.30;31.70;;;;;;5093723;28;20414;-58
2021/04/24 02:06:13;;;;;;;2.50;1.40;;;22.30;31.70;;;;;;5093675;28;20417;-57
2021/04/24 02:08:40;;;;;;;2.40;1.20;;;22.30;31.70;;;;;;5093518;28;20426;-57
2021/04/24 02:11:07;;;;;;;2.77;1.43;;;22.30;31.70;;;;;;5093514;28;20757;-58
2021/04/24 02:13:36;;;;;;;2.50;1.30;;;22.30;31.70;;;;;;5092905;28;20390;-57
2021/04/24 02:16:05;;;;;;;2.00;1.20;;;22.30;31.70;;;;;;5093422;28;20382;-57
2021/04/24 02:18:31;;;;;;;2.45;1.42;;;22.30;31.70;;;;;;5093267;28;20750;-57
2021/04/24 02:20:56;;;;;;;2.30;1.23;;;22.30;31.70;;;;;;5091941;28;20386;-57
2021/04/24 02:23:23;;;;;;;2.28;1.30;;;22.30;31.70;;;;;;5092759;28;20390;-57
2021/04/24 02:25:49;;;;;;;2.38;1.30;;;22.30;31.60;;;;;;5093090;28;20382;-58
2021/04/24 02:28:16;;;;;;;2.50;1.33;;;22.30;31.60;;;;;;5093136;28;20738;-57
2021/04/24 02:30:44;;;;;;;2.35;1.30;;;22.30;31.60;;;;;;5093098;28;20382;-57
2021/04/24 02:33:10;;;;;;;2.70;1.25;;;22.30;31.60;;;;;;5093125;28;20433;-57
2021/04/24 02:35:42;;;;;;;2.28;1.30;;;22.30;31.60;;;;;;5092486;28;20469;-57
2021/04/24 02:38:08;;;;;;;2.10;1.30;;;22.30;31.60;;;;;;5092956;28;20469;-57
2021/04/24 02:40:34;;;;;;;2.37;1.20;;;22.20;31.50;;;;;;5092894;28;20432;-57
2021/04/24 02:43:00;;;;;;;3.40;1.50;;;22.20;31.60;;;;;;5092865;28;20406;-58
2021/04/24 02:45:25;;;;;;;2.50;1.55;;;22.20;31.50;;;;;;5092447;28;20926;-58
2021/04/24 02:47:52;;;;;;;2.50;1.40;;;22.20;31.50;;;;;;5092748;28;20393;-58
2021/04/24 02:50:19;;;;;;;2.77;1.27;;;22.20;31.50;;;;;;5073391;28;20494;-58
2021/04/24 02:52:45;;;;;;;2.03;1.30;;;22.20;31.40;;;;;;5072603;28;20394;-57
2021/04/24 02:55:13;;;;;;;1.80;1.10;;;22.20;31.40;;;;;;5072367;28;20392;-58
2021/04/24 02:57:39;;;;;;;2.00;1.10;;;22.20;31.40;;;;;;5071902;28;20388;-58
2021/04/24 03:00:06;;;;;;;2.80;1.35;;;22.20;32.10;;;;;;5072323;28;20429;-57
2021/04/24 03:02:32;;;;;;;2.80;1.40;;;22.20;31.50;;;;;;5070631;28;20430;-58
2021/04/24 03:04:58;;;;;;;1.55;1.00;;;22.20;31.50;;;;;;5070921;28;20383;-57
2021/04/24 03:07:23;;;;;;;2.10;1.10;;;22.20;31.50;;;;;;5069729;28;20813;-57
2021/04/24 03:09:49;;;;;;;2.13;1.20;;;22.20;31.40;;;;;;5072018;28;20880;-58
2021/04/24 03:12:15;;;;;;;2.45;1.23;;;22.20;31.40;;;;;;5072057;28;20388;-57
2021/04/24 03:14:40;;;;;;;2.13;1.20;;;22.20;31.40;;;;;;5071956;28;20422;-57
2021/04/24 03:17:06;;;;;;;2.15;1.25;;;22.20;31.40;;;;;;5071929;28;20410;-57
2021/04/24 03:19:32;;;;;;;2.03;1.10;;;22.20;31.40;;;;;;5070086;28;20380;-58
2021/04/24 03:21:57;;;;;;;1.80;1.10;;;22.20;31.40;;;;;;5071816;28;20406;-57
2021/04/24 03:24:23;;;;;;;2.40;1.20;;;22.20;31.40;;;;;;5071842;28;20752;-58
2021/04/24 03:26:49;;;;;;;2.20;1.30;;;22.20;31.30;;;;;;5071814;28;20372;-58
2021/04/24 03:29:14;;;;;;;2.00;1.20;;;22.20;32.00;;;;;;5071765;28;20476;-57
2021/04/24 03:31:40;;;;;;;1.77;1.00;;;22.20;31.30;;;;;;5071494;28;20414;-59
2021/04/24 03:34:06;;;;;;;2.13;1.15;;;22.20;31.40;;;;;;5071755;28;20438;-57
2021/04/24 03:36:32;;;;;;;2.20;1.00;;;22.20;31.30;;;;;;5071630;28;20380;-58
2021/04/24 03:38:57;;;;;;;2.40;1.10;;;22.10;31.30;;;;;;5071590;28;20383;-58
2021/04/24 03:41:23;;;;;;;1.85;1.00;;;22.20;31.30;;;;;;5071089;28;20421;-57
2021/04/24 03:43:49;;;;;;;1.67;0.90;;;22.10;31.30;;;;;;5070298;28;20392;-57
2021/04/24 03:46:14;;;;;;;1.58;0.90;;;22.10;31.30;;;;;;5071573;28;20395;-57
2021/04/24 03:48:40;;;;;;;2.22;1.10;;;22.10;31.30;;;;;;5071491;28;20415;-57
2021/04/24 03:51:06;;;;;;;2.27;1.10;;;22.20;31.30;;;;;;5071588;28;20414;-57
2021/04/24 03:53:31;;;;;;;1.70;1.00;;;22.10;31.20;;;;;;5071025;28;20815;-57
2021/04/24 03:55:57;;;;;;;2.03;1.10;;;22.10;31.20;;;;;;5071506;28;20392;-57
2021/04/24 03:58:23;;;;;;;2.63;1.13;;;22.20;31.30;;;;;;5071366;28;20423;-57
2021/04/24 04:00:49;;;;;;;2.03;1.20;;;22.10;31.20;;;;;;5071078;28;20423;-57
2021/04/24 04:03:15;;;;;;;2.15;1.00;;;22.10;31.20;;;;;;5071463;28;20428;-57
2021/04/24 04:05:44;;;;;;;1.55;0.90;;;22.10;31.20;;;;;;5070814;28;20395;-57
2021/04/24 04:08:13;;;;;;;1.80;1.20;;;22.10;31.20;;;;;;5071359;28;20399;-57
2021/04/24 04:10:41;;;;;;;1.88;1.05;;;22.10;31.20;;;;;;5071282;28;20387;-57
2021/04/24 04:13:08;;;;;;;1.85;1.20;;;22.10;31.20;;;;;;5071520;28;20415;-57
2021/04/24 04:15:34;;;;;;;1.88;1.00;;;22.10;31.20;;;;;;5070781;28;20395;-57
2021/04/24 04:18:05;;;;;;;1.70;1.20;;;22.10;31.20;;;;;;5072998;28;20376;-57
2021/04/24 04:20:32;;;;;;;1.63;1.10;;;22.10;31.20;;;;;;5074317;28;20407;-57
2021/04/24 04:22:57;;;;;;;1.52;0.95;;;22.10;31.10;;;;;;5075341;28;20488;-57
2021/04/24 04:25:24;;;;;;;1.53;1.00;;;22.10;31.20;;;;;;5074794;28;20540;-57
2021/04/24 04:27:50;;;;;;;1.85;0.88;;;22.10;31.20;;;;;;5075264;28;21207;-57
2021/04/24 04:30:17;;;;;;;1.88;0.90;;;22.10;31.10;;;;;;5075180;28;20387;-57
2021/04/24 04:32:44;;;;;;;1.73;0.90;;;22.10;31.20;;;;;;5074945;28;20383;-57
2021/04/24 04:35:10;;;;;;;2.33;1.10;;;22.10;31.10;;;;;;5075053;28;20436;-57
2021/04/24 04:37:36;;;;;;;1.60;1.00;;;22.00;31.10;;;;;;5073303;28;20748;-57
2021/04/24 04:40:04;;;;;;;1.83;0.97;;;22.10;31.20;;;;;;5074953;28;20391;-57
2021/04/24 04:42:30;;;;;;;2.00;1.20;;;22.00;31.20;;;;;;5074846;28;20484;-57
2021/04/24 04:44:55;;;;;;;2.13;1.00;;;22.00;31.20;;;;;;5074817;28;20415;-57
2021/04/24 04:47:21;;;;;;;1.70;1.00;;;22.10;31.20;;;;;;5074624;28;20910;-57
2021/04/24 04:49:47;;;;;;;2.10;0.90;;;22.00;31.20;;;;;;5074510;28;20394;-57
2021/04/24 04:52:12;;;;;;;1.65;0.98;;;22.00;31.20;;;;;;5074769;28;20391;-57
2021/04/24 04:54:38;;;;;;;1.53;0.90;;;22.10;31.10;;;;;;5074760;28;20466;-57
2021/04/24 04:57:04;;;;;;;1.63;1.05;;;22.10;31.10;;;;;;5074659;28;20427;-57
2021/04/24 04:59:30;;;;;;;1.77;1.00;;;22.10;31.00;;;;;;5074011;28;20437;-57
2021/04/24 05:01:56;;;;;;;2.00;1.00;;;22.10;31.00;;;;;;5074385;28;20445;-57
2021/04/24 05:04:22;;;;;;;1.40;0.88;;;22.10;31.00;;;;;;5074519;28;20384;-57
2021/04/24 05:06:50;;;;;;;2.10;1.00;;;22.10;30.90;;;;;;5074409;28;20507;-57
2021/04/24 05:09:18;;;;;;;1.40;0.80;;;22.20;31.00;;;;;;5074449;28;20391;-57
2021/04/24 05:11:45;;;;;;;1.53;0.90;;;22.10;30.90;;;;;;5073993;28;20476;-57
2021/04/24 05:14:11;;;;;;;2.10;0.98;;;22.10;30.90;;;;;;5074306;28;20482;-57
2021/04/24 05:16:37;;;;;;;1.40;0.90;;;22.10;30.90;;;;;;5074235;28;20424;-57
2021/04/24 05:19:03;;;;;;;1.88;0.90;;;22.10;31.00;;;;;;5074302;28;20419;-57
2021/04/24 05:21:29;;;;;;;2.13;0.95;;;22.10;31.00;;;;;;5073561;28;20399;-57
2021/04/24 05:23:55;;;;;;;2.60;1.10;;;22.10;31.20;;;;;;5074332;28;20407;-58
2021/04/24 05:26:21;;;;;;;1.98;0.90;;;22.10;31.50;;;;;;5074190;28;20903;-57
2021/04/24 05:28:47;;;;;;;3.28;0.90;;;22.00;31.40;;;;;;5073644;28;20403;-57
2021/04/24 05:31:13;;;;;;;3.33;1.20;;;21.90;31.50;;;;;;5073882;28;20384;-57
2021/04/24 05:33:38;;;;;;;4.53;1.30;;;21.90;31.50;;;;;;5073653;28;20388;-58
2021/04/24 05:36:09;;;;;;;4.75;1.13;;;21.80;32.10;;;;;;5073954;28;20384;-58
2021/04/24 05:38:35;;;;;;;2.20;1.00;;;21.80;32.00;;;;;;5073916;28;20392;-57
2021/04/24 05:41:00;;;;;;;2.53;1.27;;;21.80;32.20;;;;;;5073820;28;20410;-57
2021/04/24 05:43:26;;;;;;;3.40;1.00;;;21.80;32.10;;;;;;5073710;28;20395;-57
2021/04/24 05:45:52;;;;;;;2.80;1.17;;;21.90;32.80;;;;;;5072515;28;20388;-58
2021/04/24 05:48:18;;;;;;;3.45;1.00;;;21.90;32.20;;;;;;5073741;28;20388;-57
2021/04/24 05:50:43;;;;;;;2.10;0.90;;;21.90;32.60;;;;;;5073626;28;20379;-57
2021/04/24 05:53:09;;;;;;;2.42;1.00;;;21.80;32.40;;;;;;5073687;28;20388;-57
2021/04/24 05:55:36;;;;;;;3.03;1.10;;;21.90;32.60;;;;;;5073126;28;20487;-57
2021/04/24 05:58:02;;;;;;;5.70;1.05;;;21.80;33.30;;;;;;5073583;28;20910;-57
2021/04/24 06:00:28;;;;;;;4.03;1.20;;;21.90;32.90;;;;;;5073073;28;20392;-57
2021/04/24 06:02:54;;;;;;;5.55;1.08;;;21.90;33.10;;;;;;5073360;28;20415;-57
2021/04/24 06:05:20;;;;;;;3.05;0.90;;;21.90;33.00;;;;;;5072689;28;20386;-57
2021/04/24 06:07:46;;;;;;;3.37;1.00;;;21.90;33.00;;;;;;5071623;28;20392;-57
2021/04/24 06:10:15;;;;;;;2.90;1.10;;;21.90;32.90;;;;;;5073656;28;20388;-57
2021/04/24 06:12:41;;;;;;;3.53;1.20;;;21.90;33.40;;;;;;5073269;28;20416;-57
2021/04/24 06:15:08;;;;;;;4.30;1.15;;;21.90;33.40;;;;;;5073191;28;20414;-57
2021/04/24 06:17:34;;;;;;;3.88;1.20;;;22.00;33.10;;;;;;5072599;28;20388;-57
2021/04/24 06:20:00;;;;;;;1.98;0.90;;;22.00;33.10;;;;;;5071840;28;20395;-57
2021/04/24 06:22:25;;;;;;;3.47;1.00;;;22.10;33.30;;;;;;5073067;28;20415;-57
2021/04/24 06:24:51;;;;;;;5.13;1.10;;;22.10;33.20;;;;;;5073030;28;20380;-57
2021/04/24 06:27:17;;;;;;;6.30;1.10;;;22.10;33.30;;;;;;5071833;28;20392;-57
2021/04/24 06:29:43;;;;;;;4.53;1.27;;;22.10;34.50;;;;;;5071473;28;20390;-57
2021/04/24 06:32:09;;;;;;;7.20;1.25;;;22.10;33.80;;;;;;5072320;28;20419;-57
2021/04/24 06:34:35;;;;;;;4.78;1.20;;;22.20;34.40;;;;;;5072150;28;20376;-57
2021/04/24 06:37:00;;;;;;;5.97;1.50;;;22.20;34.10;;;;;;5072648;28;20395;-57
2021/04/24 06:39:26;;;;;;;4.70;1.10;;;22.20;33.50;;;;;;5072040;28;20511;-57
2021/04/24 06:41:52;;;;;;;5.28;1.10;;;22.20;33.70;;;;;;5070652;28;20768;-57
2021/04/24 06:44:18;;;;;;;2.60;1.10;;;22.30;34.10;;;;;;5072174;28;20384;-57
2021/04/24 06:46:44;;;;;;;3.80;1.00;;;22.30;34.20;;;;;;5071983;28;20384;-57
2021/04/24 06:49:10;;;;;;;4.13;1.05;;;22.30;34.20;;;;;;5072065;28;20388;-57
2021/04/24 06:51:37;;;;;;;4.05;1.02;;;22.40;34.10;;;;;;5071922;28;20439;-57
2021/04/24 06:54:03;;;;;;;3.35;1.00;;;22.30;33.80;;;;;;5072078;28;20434;-57
2021/04/24 06:56:29;;;;;;;3.00;1.08;;;22.40;33.80;;;;;;5071896;28;20392;-57
2021/04/24 06:58:55;;;;;;;3.33;1.27;;;22.40;33.70;;;;;;5072208;28;20380;-57
2021/04/24 07:01:20;;;;;;;3.78;1.10;;;22.50;34.00;;;;;;5071941;28;20450;-57
2021/04/24 07:03:46;;;;;;;3.05;1.00;;;22.50;34.00;;;;;;5071497;28;20451;-57
2021/04/24 07:06:12;;;;;;;3.40;1.20;;;22.50;33.90;;;;;;5072161;28;20379;-56
2021/04/24 07:08:38;;;;;;;2.85;0.85;;;22.50;34.00;;;;;;5072144;28;20901;-56
2021/04/24 07:11:03;;;;;;;3.30;0.90;;;22.50;33.80;;;;;;5071849;28;20408;-57
2021/04/24 07:13:29;;;;;;;3.50;0.93;;;22.60;33.50;;;;;;5071801;28;20380;-57
2021/04/24 07:15:54;;;;;;;4.27;1.27;;;22.60;33.60;;;;;;5070506;28;20482;-57
2021/04/24 07:18:20;;;;;;;4.50;1.40;;;22.60;33.70;;;;;;5072072;28;20534;-57
2021/04/24 07:20:49;;;;;;;3.05;1.10;;;22.60;33.60;;;;;;5070538;28;20392;-57
2021/04/24 07:23:15;;;;;;;4.03;1.30;;;22.60;33.30;;;;;;5071838;28;20439;-57
2021/04/24 07:25:41;;;;;;;4.50;1.20;;;22.70;33.00;;;;;;5071382;28;20456;-57
2021/04/24 07:28:06;;;;;;;2.92;1.20;;;22.70;32.90;;;;;;5071987;28;20759;-57
2021/04/24 07:30:34;;;;;;;4.37;1.10;;;22.70;32.90;;;;;;5071763;28;21037;-57
2021/04/24 07:33:00;;;;;;;3.78;1.02;;;22.70;32.80;;;;;;5072073;28;20732;-57
2021/04/24 07:35:26;;;;;;;2.17;1.07;;;22.70;32.70;;;;;;5071867;28;20879;-57
2021/04/24 07:37:52;;;;;;;2.08;0.93;;;22.70;32.70;;;;;;5071267;28;20429;-57
2021/04/24 07:40:17;;;;;;;2.38;0.95;;;22.70;32.60;;;;;;5071439;28;20713;-57
2021/04/24 07:42:43;;;;;;;1.90;1.10;;;22.70;32.60;;;;;;5071536;28;20498;-57
2021/04/24 07:45:10;;;;;;;2.85;0.90;;;22.80;32.50;;;;;;5070334;28;20907;-57
2021/04/24 07:47:35;;;;;;;2.25;1.17;;;22.80;32.40;;;;;;5071070;28;20427;-57
2021/04/24 07:50:01;;;;;;;3.67;1.10;;;22.80;32.20;;;;;;5071583;28;20827;-57
2021/04/24 07:52:27;;;;;;;2.00;0.90;;;22.90;32.90;;;;;;5071151;28;20461;-57
2021/04/24 07:54:53;;;;;;;2.97;1.10;;;22.90;32.20;;;;;;5071543;28;20713;-57
2021/04/24 07:57:18;;;;;;;3.15;1.20;;;22.90;32.40;;;;;;5071600;28;20934;-57
2021/04/24 07:59:45;;;;;;;3.10;1.00;;;22.90;32.30;;;;;;5070893;28;20395;-57
2021/04/24 08:02:14;;;;;;;1.67;0.87;;;23.00;32.40;;;;;;5095223;28;20489;-57
2021/04/24 08:04:41;;;;;;;2.42;1.20;;;23.10;32.20;;;;;;5109279;28;20412;-57
2021/04/24 08:07:09;;;;;;;2.10;0.93;;;23.10;32.00;;;;;;5111992;28;20388;-57
2021/04/24 08:09:35;;;;;;;2.30;1.00;;;23.20;31.60;;;;;;5111149;28;20435;-57
2021/04/24 08:12:01;;;;;;;1.80;1.00;;;23.20;31.80;;;;;;5111800;28;20380;-57
2021/04/24 08:14:26;;;;;;;2.10;1.02;;;23.20;31.70;;;;;;5111765;28;20451;-57
2021/04/24 08:16:52;;;;;;;2.23;0.97;;;23.30;31.70;;;;;;5112074;28;20445;-57
2021/04/24 08:19:18;;;;;;;1.90;0.90;;;23.30;31.60;;;;;;5111830;28;20925;-57
2021/04/24 08:21:44;;;;;;;1.50;0.98;;;23.30;31.60;;;;;;5111029;28;20400;-57
2021/04/24 08:24:11;;;;;;;2.25;0.90;;;23.40;31.40;;;;;;5111832;28;20376;-57
2021/04/24 08:26:36;;;;;;;1.85;1.00;;;23.40;31.20;;;;;;5111692;28;20425;-57
2021/04/24 08:29:06;;;;;;;1.80;1.10;;;23.40;31.30;;;;;;5111723;28;20444;-57
2021/04/24 08:31:32;;;;;;;1.77;0.80;;;23.40;31.30;;;;;;5111597;28;20376;-57
2021/04/24 08:33:58;;;;;;;2.38;1.00;;;23.50;31.70;;;;;;5111459;28;20480;-57
2021/04/24 08:36:24;;;;;;;2.70;1.10;;;23.50;31.30;;;;;;5111685;28;20467;-57
2021/04/24 08:38:49;;;;;;;2.80;1.00;;;23.50;31.30;;;;;;5111584;28;20398;-57
2021/04/24 08:41:15;;;;;;;1.43;0.80;;;23.60;31.00;;;;;;5111589;28;20376;-57
2021/04/24 08:43:41;;;;;;;1.67;0.95;;;23.60;31.20;;;;;;5111079;28;20748;-57
2021/04/24 08:46:07;;;;;;;1.63;0.88;;;23.60;31.10;;;;;;5111580;28;20431;-57
2021/04/24 08:48:34;;;;;;;1.73;0.98;;;23.70;31.10;;;;;;5111527;28;20923;-57
2021/04/24 08:51:00;;;;;;;2.15;0.95;;;23.70;31.10;;;;;;5111516;28;20733;-57
2021/04/24 08:53:27;;;;;;;2.15;1.00;;;23.80;31.10;;;;;;5111369;28;20844;-57
2021/04/24 08:55:53;;;;;;;1.70;1.00;;;23.80;31.00;;;;;;5110950;28;20404;-57
2021/04/24 08:58:20;;;;;;;1.50;0.70;;;23.80;30.90;;;;;;5111408;28;20373;-57
2021/04/24 09:00:48;;;;;;;2.15;0.98;;;23.80;30.90;;;;;;5111120;28;20447;-57
2021/04/24 09:03:18;;;;;;;1.80;0.90;;;23.90;31.00;;;;;;5111310;28;20424;-57
2021/04/24 09:05:44;;;;;;;1.33;0.80;;;23.90;30.90;;;;;;5113605;28;20399;-57
2021/04/24 09:08:11;;;;;;;1.83;0.98;;;23.90;30.90;;;;;;5115045;28;20398;-57
2021/04/24 09:10:41;;;;;;;1.80;1.08;;;24.00;30.90;;;;;;5114926;28;20385;-57
2021/04/24 09:13:09;;;;;;;1.77;1.00;;;24.00;30.80;;;;;;5115058;28;20396;-57
2021/04/24 09:15:35;;;;;;;1.52;0.90;;;24.10;30.80;;;;;;5114652;28;20380;-57
2021/04/24 09:18:02;;;;;;;1.60;0.80;;;24.10;30.80;;;;;;5114784;28;20456;-57
2021/04/24 09:20:30;;;;;;;1.45;0.90;;;24.20;30.80;;;;;;5114900;28;20391;-58
2021/04/24 09:22:59;;;;;;;1.83;1.00;;;24.20;30.90;;;;;;5114917;28;20472;-57
2021/04/24 09:26:02;;;;;;;1.80;1.00;;;24.20;30.80;;;;;;5114839;28;20460;-57
2021/04/24 09:28:42;;;;;;;2.05;0.90;;;24.20;30.80;;;;;;5101504;27;20385;-57
2021/04/24 09:31:18;;;;;;;2.63;1.00;;;24.30;30.80;;;;;;5114599;28;20426;-57
2021/04/24 09:33:46;;;;;;;4.82;1.40;;;24.30;30.70;;;;;;5114108;28;20878;-57
2021/04/24 09:36:13;;;;;;;5.15;1.88;;;24.20;30.20;;;;;;5114534;28;20400;-57
2021/04/24 09:38:47;;;;;;;5.97;2.33;;;24.30;29.70;;;;;;5114525;28;20376;-57
2021/04/24 09:41:16;;;;;;;6.63;2.60;;;24.30;29.10;;;;;;5113811;28;20396;-57
2021/04/24 09:44:07;;;;;;;6.18;2.60;;;24.30;28.50;;;;;;5113639;28;20384;-57
2021/04/24 09:46:52;;;;;;;6.47;2.60;;;24.30;28.30;;;;;;5109451;27;20894;-57
2021/04/24 09:49:20;;;;;;;5.88;2.30;;;24.30;28.40;;;;;;5114128;28;20898;-57
2021/04/24 09:51:49;;;;;;;10.88;1.98;;;24.30;28.90;;;;;;5113761;28;20473;-57
2021/04/24 09:54:16;;;;;;;4.00;1.67;;;24.40;29.40;;;;;;5114142;28;20384;-60
2021/04/24 09:56:42;;;;;;;7.28;1.70;;;24.40;29.60;;;;;;5114153;28;20391;-57
2021/04/24 09:59:10;;;;;;;7.53;1.77;;;24.50;29.80;;;;;;5114129;28;20409;-56
2021/04/24 10:01:41;;;;;;;4.80;1.55;;;24.50;29.80;;;;;;5113317;28;20419;-57
2021/04/24 10:04:11;;;;;;;3.67;1.30;;;24.50;29.90;;;;;;5114049;28;20430;-56
2021/04/24 10:06:41;;;;;;;5.90;1.35;;;24.60;29.90;;;;;;5113805;28;20384;-57
2021/04/24 10:09:14;;;;;;;3.67;1.30;;;24.60;30.10;;;;;;5113806;28;20914;-56
2021/04/24 10:11:42;;;;;;;3.53;1.30;;;24.70;30.30;;;;;;5113570;28;20397;-57
2021/04/24 10:14:08;;;;;;;4.85;1.40;;;24.70;30.30;;;;;;5106696;28;20390;-57
2021/04/24 10:16:52;;;;;;;3.25;1.20;;;24.70;30.00;;;;;;5092491;28;20916;-57
2021/04/24 10:19:18;;;;;;;4.07;1.20;;;24.80;30.00;;;;;;5093147;28;20460;-57
2021/04/24 10:21:44;;;;;;;3.50;1.20;;;24.80;30.40;;;;;;5092754;28;20889;-57
2021/04/24 10:24:11;;;;;;;2.60;1.20;;;24.80;30.30;;;;;;5093226;28;20858;-57
2021/04/24 10:26:39;;;;;;;3.15;1.25;;;24.80;30.10;;;;;;5092789;28;20378;-59
2021/04/24 10:29:06;;;;;;;4.38;1.20;;;24.90;30.60;;;;;;5092956;28;20951;-58
2021/04/24 10:31:33;;;;;;;3.83;1.20;;;25.00;30.60;;;;;;5093288;28;20390;-60
2021/04/24 10:34:01;;;;;;;3.28;1.10;;;25.00;30.60;;;;;;5092593;28;20386;-59
2021/04/24 10:36:28;;;;;;;4.53;1.08;;;25.10;30.50;;;;;;5092987;28;20410;-59
2021/04/24 10:38:55;;;;;;;4.40;1.15;;;25.10;31.10;;;;;;5092919;28;20382;-57
2021/04/24 10:41:52;;;;;;;2.20;1.05;;;25.10;30.50;;;;;;5092954;28;20484;-57
2021/04/24 10:44:18;;;;;;;4.05;1.00;;;25.20;30.30;;;;;;5092735;28;20904;-58
2021/04/24 10:46:46;;;;;;;5.23;1.07;;;25.30;30.40;;;;;;5092911;28;20390;-57
2021/04/24 10:49:18;;;;;;;3.10;0.90;;;25.30;30.80;;;;;;5092845;28;20382;-57
2021/04/24 10:51:59;;;;;;;3.65;1.13;;;25.40;30.90;;;;;;5092133;28;20402;-57
2021/04/24 10:54:29;;;;;;;2.55;1.08;;;25.40;30.60;;;;;;5092434;28;20389;-57
2021/04/24 10:56:55;;;;;;;3.45;1.10;;;25.40;30.60;;;;;;5091952;28;20404;-57
2021/04/24 10:59:31;;;;;;;3.40;1.15;;;25.50;31.20;;;;;;5092071;28;20428;-58
2021/04/24 11:02:12;;;;;;;2.63;1.02;;;25.60;30.50;;;;;;5091891;28;20955;-57
2021/04/24 11:04:43;;;;;;;2.30;1.00;;;25.60;30.60;;;;;;5092384;28;20394;-58
2021/04/24 11:07:15;;;;;;;3.07;1.17;;;25.70;30.80;;;;;;5092431;28;20418;-58
2021/04/24 11:09:41;;;;;;;2.42;1.00;;;25.70;30.60;;;;;;5092042;28;20374;-58
2021/04/24 11:12:13;;;;;;;3.13;0.90;;;25.80;30.80;;;;;;5091804;28;20722;-58
2021/04/24 11:14:42;;;;;;;5.45;1.13;;;25.80;31.00;;;;;;5092316;28;20783;-58
2021/04/24 11:17:10;;;;;;;2.40;0.88;;;25.90;31.30;;;;;;5092246;28;20465;-58
2021/04/24 11:19:44;;;;;;;3.67;0.95;;;25.90;31.00;;;;;;5092269;28;20386;-58
2021/04/24 11:22:36;;;;;;;2.27;0.80;;;26.00;30.80;;;;;;5092181;28;20504;-59
2021/04/24 11:25:23;;;;;;;2.22;0.80;;;25.90;30.50;;;;;;5092270;28;20415;-57
2021/04/24 11:28:07;;;;;;;3.53;1.10;;;26.00;30.10;;;;;;5090896;28;20832;-57
2021/04/24 11:31:04;;;;;;;4.55;0.93;;;26.00;30.00;;;;;;5091755;28;20390;-57
2021/04/24 11:33:47;;;;;;;3.53;0.90;;;26.00;30.00;;;;;;5091833;28;20394;-57
2021/04/24 11:36:16;;;;;;;2.30;0.90;;;26.00;30.00;;;;;;5091942;28;20414;-56
2021/04/24 11:38:57;;;;;;;3.03;1.00;;;26.10;30.00;;;;;;5091833;28;20382;-57
2021/04/24 11:41:38;;;;;;;2.75;0.82;;;26.10;29.90;;;;;;5091572;28;20403;-57
2021/04/24 11:44:19;;;;;;;2.17;0.80;;;26.10;29.90;;;;;;5091297;28;20387;-57
2021/04/24 11:46:47;;;;;;;3.17;1.02;;;26.10;29.80;;;;;;5091913;28;20386;-57
2021/04/24 11:49:17;;;;;;;2.47;1.08;;;26.20;29.80;;;;;;5084725;28;20409;-57
2021/04/24 11:51:45;;;;;;;3.53;0.93;;;26.20;29.80;;;;;;5072356;28;20395;-57
2021/04/24 11:54:14;;;;;;;4.07;0.95;;;26.20;29.90;;;;;;5068826;28;20396;-57
2021/04/24 11:56:44;;;;;;;3.03;0.90;;;26.30;30.00;;;;;;5069994;28;20395;-57
2021/04/24 11:59:10;;;;;;;4.22;1.08;;;26.30;30.30;;;;;;5070058;28;20379;-58
2021/04/24 12:01:36;;;;;;;3.83;0.95;;;26.30;30.60;;;;;;5068461;28;20411;-57
2021/04/24 12:04:02;;;;;;;3.85;0.95;;;26.40;30.20;;;;;;5069685;28;20392;-57
2021/04/24 12:06:37;;;;;;;3.63;0.90;;;26.40;30.00;;;;;;5070033;28;20384;-57
2021/04/24 12:09:10;;;;;;;4.28;1.23;;;26.40;30.40;;;;;;5068626;28;20415;-57
2021/04/24 12:11:35;;;;;;;3.28;1.00;;;26.40;30.70;;;;;;5069876;28;20384;-57
2021/04/24 12:14:01;;;;;;;6.30;1.20;;;26.40;30.60;;;;;;5069749;28;20388;-57
2021/04/24 12:16:46;;;;;;;1.98;0.93;;;26.50;30.40;;;;;;5069910;28;20477;-57
2021/04/24 12:19:33;;;;;;;3.20;1.00;;;26.50;30.40;;;;;;5069959;28;20786;-58
2021/04/24 12:22:05;;;;;;;2.72;0.95;;;26.60;30.20;;;;;;5069468;28;20415;-57
2021/04/24 12:24:33;;;;;;;3.15;1.15;;;26.60;30.40;;;;;;5069845;28;20387;-57
2021/04/24 12:26:58;;;;;;;3.35;1.08;;;26.50;31.40;;;;;;5070023;28;20383;-57
2021/04/24 12:29:49;;;;;;;3.47;1.02;;;26.60;31.00;;;;;;5068705;28;20395;-59
2021/04/24 12:32:17;;;;;;;2.58;0.77;;;26.60;30.60;;;;;;5069836;28;20467;-59
2021/04/24 12:34:43;;;;;;;3.38;1.00;;;26.60;30.90;;;;;;5069760;28;20379;-60
2021/04/24 12:37:12;;;;;;;3.63;0.97;;;26.60;31.10;;;;;;5069643;28;20402;-57
2021/04/24 12:39:38;;;;;;;3.97;1.00;;;26.60;30.70;;;;;;5072477;28;20399;-57
2021/04/24 12:42:05;;;;;;;3.45;0.93;;;26.70;30.60;;;;;;5073094;28;20419;-57
2021/04/24 12:44:32;;;;;;;2.53;0.95;;;26.70;30.30;;;;;;5073489;28;20375;-57
2021/04/24 12:46:59;;;;;;;2.30;0.80;;;26.70;30.20;;;;;;5073477;28;20406;-57
2021/04/24 12:49:26;;;;;;;2.10;1.10;;;26.80;30.10;;;;;;5072060;28;20376;-57
2021/04/24 12:52:09;;;;;;;4.47;1.02;;;26.80;30.00;;;;;;5073204;28;20468;-57